KERI/ERI METAR and TAF weather

Enter ICAO airport designator
Station Type Date Time Source
KERI METAR 2022/12/10 00:51 UTC NOAA

KERI 100051Z 06012KT 10SM CLR M01/M04 A3028 RMK AO2 SLP262 T10061039


Station Type Date Time Source
KERI Decoded METAR 2022/12/10 00:51 UTC NOAA

ERIE INTERNATIONAL AIRPORT, PA, United States (KERI) 42-05N 080-11W 222M
Dec 09, 2022 - 07:51 PM EST / 2022.12.10 0051 UTC
Wind: from the ENE (060 degrees) at 14 MPH (12 KT):0
Visibility: 10 mile(s):0
Sky conditions: clear
Temperature: 30.9 F (-0.6 C)
Windchill: 21 F (-6 C):1
Dew Point: 25.0 F (-3.9 C)
Relative Humidity: 78%
Pressure (altimeter): 30.28 in. Hg (1025 hPa)
ob: KERI 100051Z 06012KT 10SM CLR M01/M04 A3028 RMK AO2 SLP262 T10061039
cycle: 1

Station Type Date Time Source
KERI TAF 2022/12/09 19:24 UTC NOAA

TAF
AMD KERI 091921Z 0919/1018 08010KT P6SM SCT030
FM100600 09008KT P6SM BKN100

Example: see airport list